sensor_id;sensor_type;location;lat;lon;timestamp;P1;durP1;ratioP1;P2;durP2;ratioP2
12687;SDS011;6408;59.388;17.798;2023-05-15T00:00:54;3.08;;;2.50;;
12687;SDS011;6408;59.388;17.798;2023-05-15T00:03:23;3.40;;;2.63;;
12687;SDS011;6408;59.388;17.798;2023-05-15T00:05:51;2.80;;;2.60;;
12687;SDS011;6408;59.388;17.798;2023-05-15T00:08:20;4.07;;;2.42;;
12687;SDS011;6408;59.388;17.798;2023-05-15T00:10:50;2.97;;;2.67;;
12687;SDS011;6408;59.388;17.798;2023-05-15T00:13:17;5.97;;;3.47;;
12687;SDS011;6408;59.388;17.798;2023-05-15T00:15:45;3.85;;;2.60;;
12687;SDS011;6408;59.388;17.798;2023-05-15T00:18:12;4.72;;;2.70;;
12687;SDS011;6408;59.388;17.798;2023-05-15T00:20:39;6.15;;;2.70;;
12687;SDS011;6408;59.388;17.798;2023-05-15T00:23:07;2.83;;;2.58;;
12687;SDS011;6408;59.388;17.798;2023-05-15T00:25:35;3.47;;;2.63;;
12687;SDS011;6408;59.388;17.798;2023-05-15T00:28:04;4.72;;;2.63;;
12687;SDS011;6408;59.388;17.798;2023-05-15T00:30:32;4.70;;;2.80;;
12687;SDS011;6408;59.388;17.798;2023-05-15T00:33:00;3.72;;;2.53;;
12687;SDS011;6408;59.388;17.798;2023-05-15T00:35:27;3.85;;;2.60;;
12687;SDS011;6408;59.388;17.798;2023-05-15T00:37:55;2.85;;;2.53;;
12687;SDS011;6408;59.388;17.798;2023-05-15T00:40:23;3.42;;;2.55;;
12687;SDS011;6408;59.388;17.798;2023-05-15T00:42:52;2.80;;;2.60;;
12687;SDS011;6408;59.388;17.798;2023-05-15T00:45:21;3.65;;;2.70;;
12687;SDS011;6408;59.388;17.798;2023-05-15T00:47:50;3.53;;;2.60;;
12687;SDS011;6408;59.388;17.798;2023-05-15T00:50:18;6.32;;;3.15;;
12687;SDS011;6408;59.388;17.798;2023-05-15T00:53:11;3.50;;;2.80;;
12687;SDS011;6408;59.388;17.798;2023-05-15T00:56:08;4.53;;;2.90;;
12687;SDS011;6408;59.388;17.798;2023-05-15T01:04:18;5.85;;;3.17;;
12687;SDS011;6408;59.388;17.798;2023-05-15T01:06:46;4.30;;;3.63;;
12687;SDS011;6408;59.388;17.798;2023-05-15T01:09:18;3.40;;;3.10;;
12687;SDS011;6408;59.388;17.798;2023-05-15T01:11:49;3.97;;;2.97;;
12687;SDS011;6408;59.388;17.798;2023-05-15T01:14:19;3.55;;;3.25;;
12687;SDS011;6408;59.388;17.798;2023-05-15T01:16:46;4.35;;;3.08;;
12687;SDS011;6408;59.388;17.798;2023-05-15T01:19:14;3.83;;;2.78;;
12687;SDS011;6408;59.388;17.798;2023-05-15T01:21:51;3.40;;;2.90;;
12687;SDS011;6408;59.388;17.798;2023-05-15T01:24:50;4.43;;;3.13;;
12687;SDS011;6408;59.388;17.798;2023-05-15T01:27:53;4.10;;;2.97;;
12687;SDS011;6408;59.388;17.798;2023-05-15T01:30:25;4.65;;;3.30;;
12687;SDS011;6408;59.388;17.798;2023-05-15T01:32:58;4.88;;;3.17;;
12687;SDS011;6408;59.388;17.798;2023-05-15T01:35:32;4.15;;;3.10;;
12687;SDS011;6408;59.388;17.798;2023-05-15T01:40:53;5.38;;;3.10;;
12687;SDS011;6408;59.388;17.798;2023-05-15T01:43:27;3.65;;;3.13;;
12687;SDS011;6408;59.388;17.798;2023-05-15T01:45:57;3.95;;;3.22;;
12687;SDS011;6408;59.388;17.798;2023-05-15T01:48:25;6.25;;;3.10;;
12687;SDS011;6408;59.388;17.798;2023-05-15T01:50:54;3.63;;;3.33;;
12687;SDS011;6408;59.388;17.798;2023-05-15T01:53:26;3.45;;;3.15;;
12687;SDS011;6408;59.388;17.798;2023-05-15T01:55:56;6.32;;;3.10;;
12687;SDS011;6408;59.388;17.798;2023-05-15T01:58:24;5.13;;;3.30;;
12687;SDS011;6408;59.388;17.798;2023-05-15T02:00:54;5.93;;;3.35;;
12687;SDS011;6408;59.388;17.798;2023-05-15T02:03:22;3.33;;;2.80;;
12687;SDS011;6408;59.388;17.798;2023-05-15T02:05:50;4.45;;;3.25;;
12687;SDS011;6408;59.388;17.798;2023-05-15T02:08:20;5.63;;;3.40;;
12687;SDS011;6408;59.388;17.798;2023-05-15T02:10:52;5.93;;;3.40;;
12687;SDS011;6408;59.388;17.798;2023-05-15T02:13:21;6.00;;;3.40;;
12687;SDS011;6408;59.388;17.798;2023-05-15T02:15:51;4.78;;;3.05;;
12687;SDS011;6408;59.388;17.798;2023-05-15T02:18:19;5.10;;;3.35;;
12687;SDS011;6408;59.388;17.798;2023-05-15T02:20:46;4.65;;;3.40;;
12687;SDS011;6408;59.388;17.798;2023-05-15T02:23:13;5.53;;;3.38;;
12687;SDS011;6408;59.388;17.798;2023-05-15T02:25:42;4.10;;;3.20;;
12687;SDS011;6408;59.388;17.798;2023-05-15T02:28:16;3.97;;;3.50;;
12687;SDS011;6408;59.388;17.798;2023-05-15T02:30:53;4.70;;;3.83;;
12687;SDS011;6408;59.388;17.798;2023-05-15T02:33:25;4.32;;;3.42;;
12687;SDS011;6408;59.388;17.798;2023-05-15T02:35:58;4.07;;;3.45;;
12687;SDS011;6408;59.388;17.798;2023-05-15T02:38:29;6.57;;;3.58;;
12687;SDS011;6408;59.388;17.798;2023-05-15T02:40:59;5.97;;;3.50;;
12687;SDS011;6408;59.388;17.798;2023-05-15T02:43:27;4.40;;;3.25;;
12687;SDS011;6408;59.388;17.798;2023-05-15T02:45:56;6.40;;;3.50;;
12687;SDS011;6408;59.388;17.798;2023-05-15T02:48:25;5.70;;;3.75;;
12687;SDS011;6408;59.388;17.798;2023-05-15T02:50:52;5.88;;;3.60;;
12687;SDS011;6408;59.388;17.798;2023-05-15T02:53:20;5.30;;;3.42;;
12687;SDS011;6408;59.388;17.798;2023-05-15T02:55:47;4.95;;;3.92;;
12687;SDS011;6408;59.388;17.798;2023-05-15T02:58:15;7.05;;;3.70;;
12687;SDS011;6408;59.388;17.798;2023-05-15T03:00:42;7.03;;;3.50;;
12687;SDS011;6408;59.388;17.798;2023-05-15T03:03:11;7.80;;;3.80;;
12687;SDS011;6408;59.388;17.798;2023-05-15T03:05:39;5.22;;;3.53;;
12687;SDS011;6408;59.388;17.798;2023-05-15T03:08:06;3.92;;;3.60;;
12687;SDS011;6408;59.388;17.798;2023-05-15T03:10:33;5.60;;;3.33;;
12687;SDS011;6408;59.388;17.798;2023-05-15T03:13:01;6.35;;;3.80;;
12687;SDS011;6408;59.388;17.798;2023-05-15T03:15:28;4.38;;;3.80;;
12687;SDS011;6408;59.388;17.798;2023-05-15T03:17:55;4.03;;;3.33;;
12687;SDS011;6408;59.388;17.798;2023-05-15T03:20:24;3.80;;;3.38;;
12687;SDS011;6408;59.388;17.798;2023-05-15T03:22:52;7.28;;;4.07;;
12687;SDS011;6408;59.388;17.798;2023-05-15T03:25:19;4.20;;;3.80;;
12687;SDS011;6408;59.388;17.798;2023-05-15T03:27:48;4.15;;;3.72;;
12687;SDS011;6408;59.388;17.798;2023-05-15T03:30:15;4.45;;;3.42;;
12687;SDS011;6408;59.388;17.798;2023-05-15T03:32:43;4.47;;;3.38;;
12687;SDS011;6408;59.388;17.798;2023-05-15T03:35:10;4.63;;;3.70;;
12687;SDS011;6408;59.388;17.798;2023-05-15T03:37:39;4.35;;;3.45;;
12687;SDS011;6408;59.388;17.798;2023-05-15T03:40:07;6.20;;;3.70;;
12687;SDS011;6408;59.388;17.798;2023-05-15T03:42:34;4.38;;;3.80;;
12687;SDS011;6408;59.388;17.798;2023-05-15T03:45:02;5.90;;;4.25;;
12687;SDS011;6408;59.388;17.798;2023-05-15T03:47:29;5.30;;;3.83;;
12687;SDS011;6408;59.388;17.798;2023-05-15T03:49:57;5.10;;;3.85;;
12687;SDS011;6408;59.388;17.798;2023-05-15T03:52:24;4.00;;;3.58;;
12687;SDS011;6408;59.388;17.798;2023-05-15T03:54:53;6.05;;;3.92;;
12687;SDS011;6408;59.388;17.798;2023-05-15T03:57:21;3.67;;;3.13;;
12687;SDS011;6408;59.388;17.798;2023-05-15T03:59:48;5.95;;;3.75;;
12687;SDS011;6408;59.388;17.798;2023-05-15T04:02:15;7.72;;;3.67;;
12687;SDS011;6408;59.388;17.798;2023-05-15T04:04:44;5.45;;;3.67;;
12687;SDS011;6408;59.388;17.798;2023-05-15T04:07:11;4.32;;;3.90;;
12687;SDS011;6408;59.388;17.798;2023-05-15T04:09:38;5.50;;;4.28;;
12687;SDS011;6408;59.388;17.798;2023-05-15T04:12:07;5.40;;;4.20;;
12687;SDS011;6408;59.388;17.798;2023-05-15T04:14:35;4.25;;;3.85;;
12687;SDS011;6408;59.388;17.798;2023-05-15T04:17:02;6.70;;;4.10;;
12687;SDS011;6408;59.388;17.798;2023-05-15T04:19:29;5.47;;;3.70;;
12687;SDS011;6408;59.388;17.798;2023-05-15T04:21:57;7.32;;;3.50;;
12687;SDS011;6408;59.388;17.798;2023-05-15T04:24:24;4.70;;;3.67;;
12687;SDS011;6408;59.388;17.798;2023-05-15T04:26:51;7.97;;;3.53;;
12687;SDS011;6408;59.388;17.798;2023-05-15T04:29:20;6.90;;;4.03;;
12687;SDS011;6408;59.388;17.798;2023-05-15T04:31:48;5.50;;;3.95;;
12687;SDS011;6408;59.388;17.798;2023-05-15T04:34:15;8.93;;;3.80;;
12687;SDS011;6408;59.388;17.798;2023-05-15T04:36:42;4.05;;;3.60;;
12687;SDS011;6408;59.388;17.798;2023-05-15T04:39:10;7.15;;;3.60;;
12687;SDS011;6408;59.388;17.798;2023-05-15T04:41:37;8.57;;;4.07;;
12687;SDS011;6408;59.388;17.798;2023-05-15T04:44:05;6.65;;;3.78;;
12687;SDS011;6408;59.388;17.798;2023-05-15T04:46:34;4.85;;;3.90;;
12687;SDS011;6408;59.388;17.798;2023-05-15T04:49:01;5.80;;;3.88;;
12687;SDS011;6408;59.388;17.798;2023-05-15T04:51:28;6.50;;;3.80;;
12687;SDS011;6408;59.388;17.798;2023-05-15T04:53:56;6.30;;;3.97;;
12687;SDS011;6408;59.388;17.798;2023-05-15T04:56:23;10.32;;;4.10;;
12687;SDS011;6408;59.388;17.798;2023-05-15T04:58:50;6.38;;;3.95;;
12687;SDS011;6408;59.388;17.798;2023-05-15T05:01:18;7.63;;;3.95;;
12687;SDS011;6408;59.388;17.798;2023-05-15T05:03:47;12.05;;;3.97;;
12687;SDS011;6408;59.388;17.798;2023-05-15T05:06:18;9.38;;;3.95;;
12687;SDS011;6408;59.388;17.798;2023-05-15T05:08:45;8.55;;;3.97;;
12687;SDS011;6408;59.388;17.798;2023-05-15T05:11:13;8.88;;;3.80;;
12687;SDS011;6408;59.388;17.798;2023-05-15T05:13:45;6.05;;;3.63;;
12687;SDS011;6408;59.388;17.798;2023-05-15T05:16:15;5.45;;;3.53;;
12687;SDS011;6408;59.388;17.798;2023-05-15T05:18:43;5.15;;;3.83;;
12687;SDS011;6408;59.388;17.798;2023-05-15T05:21:13;4.85;;;3.58;;
12687;SDS011;6408;59.388;17.798;2023-05-15T05:23:40;7.15;;;3.40;;
12687;SDS011;6408;59.388;17.798;2023-05-15T05:26:08;6.40;;;3.60;;
12687;SDS011;6408;59.388;17.798;2023-05-15T05:28:36;7.75;;;3.70;;
12687;SDS011;6408;59.388;17.798;2023-05-15T05:31:03;8.88;;;3.22;;
12687;SDS011;6408;59.388;17.798;2023-05-15T05:33:30;5.72;;;3.47;;
12687;SDS011;6408;59.388;17.798;2023-05-15T05:35:58;7.85;;;3.40;;
12687;SDS011;6408;59.388;17.798;2023-05-15T05:38:27;7.70;;;2.90;;
12687;SDS011;6408;59.388;17.798;2023-05-15T05:40:55;7.68;;;3.78;;
12687;SDS011;6408;59.388;17.798;2023-05-15T05:43:24;8.68;;;3.70;;
12687;SDS011;6408;59.388;17.798;2023-05-15T05:45:51;7.55;;;3.55;;
12687;SDS011;6408;59.388;17.798;2023-05-15T05:48:18;6.97;;;3.90;;
12687;SDS011;6408;59.388;17.798;2023-05-15T05:50:46;6.72;;;3.75;;
12687;SDS011;6408;59.388;17.798;2023-05-15T05:53:13;6.43;;;3.35;;
12687;SDS011;6408;59.388;17.798;2023-05-15T05:55:42;4.65;;;3.47;;
12687;SDS011;6408;59.388;17.798;2023-05-15T05:58:10;9.27;;;3.30;;
12687;SDS011;6408;59.388;17.798;2023-05-15T06:00:37;6.38;;;3.10;;
12687;SDS011;6408;59.388;17.798;2023-05-15T06:03:05;5.00;;;3.22;;
12687;SDS011;6408;59.388;17.798;2023-05-15T06:05:32;7.25;;;3.88;;
12687;SDS011;6408;59.388;17.798;2023-05-15T06:07:59;6.00;;;3.22;;
12687;SDS011;6408;59.388;17.798;2023-05-15T06:10:28;6.43;;;3.33;;
12687;SDS011;6408;59.388;17.798;2023-05-15T06:12:57;3.97;;;3.45;;
12687;SDS011;6408;59.388;17.798;2023-05-15T06:15:25;5.68;;;3.40;;
12687;SDS011;6408;59.388;17.798;2023-05-15T06:17:53;8.32;;;3.30;;
12687;SDS011;6408;59.388;17.798;2023-05-15T06:20:20;4.57;;;3.40;;
12687;SDS011;6408;59.388;17.798;2023-05-15T06:22:48;7.80;;;3.88;;
12687;SDS011;6408;59.388;17.798;2023-05-15T06:25:15;5.07;;;3.20;;
12687;SDS011;6408;59.388;17.798;2023-05-15T06:27:43;7.03;;;2.92;;
12687;SDS011;6408;59.388;17.798;2023-05-15T06:30:14;7.35;;;3.33;;
12687;SDS011;6408;59.388;17.798;2023-05-15T06:32:42;5.63;;;3.20;;
12687;SDS011;6408;59.388;17.798;2023-05-15T06:35:09;9.73;;;3.40;;
12687;SDS011;6408;59.388;17.798;2023-05-15T06:37:37;7.75;;;3.38;;
12687;SDS011;6408;59.388;17.798;2023-05-15T06:40:05;5.85;;;3.10;;
12687;SDS011;6408;59.388;17.798;2023-05-15T06:42:33;5.82;;;3.22;;
12687;SDS011;6408;59.388;17.798;2023-05-15T06:45:02;7.20;;;3.40;;
12687;SDS011;6408;59.388;17.798;2023-05-15T06:47:31;7.70;;;3.50;;
12687;SDS011;6408;59.388;17.798;2023-05-15T06:49:59;4.07;;;3.08;;
12687;SDS011;6408;59.388;17.798;2023-05-15T06:52:26;5.75;;;3.05;;
12687;SDS011;6408;59.388;17.798;2023-05-15T06:54:54;7.00;;;3.33;;
12687;SDS011;6408;59.388;17.798;2023-05-15T06:57:22;8.80;;;3.15;;
12687;SDS011;6408;59.388;17.798;2023-05-15T06:59:49;5.68;;;3.20;;
12687;SDS011;6408;59.388;17.798;2023-05-15T07:02:16;4.68;;;2.85;;
12687;SDS011;6408;59.388;17.798;2023-05-15T07:04:45;7.05;;;3.15;;
12687;SDS011;6408;59.388;17.798;2023-05-15T07:07:12;6.90;;;3.00;;
12687;SDS011;6408;59.388;17.798;2023-05-15T07:09:39;5.82;;;3.10;;
12687;SDS011;6408;59.388;17.798;2023-05-15T07:12:09;8.13;;;2.95;;
12687;SDS011;6408;59.388;17.798;2023-05-15T07:14:36;4.80;;;3.13;;
12687;SDS011;6408;59.388;17.798;2023-05-15T07:17:04;6.55;;;3.40;;
12687;SDS011;6408;59.388;17.798;2023-05-15T07:19:31;4.82;;;2.72;;
12687;SDS011;6408;59.388;17.798;2023-05-15T07:22:00;8.05;;;3.15;;
12687;SDS011;6408;59.388;17.798;2023-05-15T07:24:27;9.13;;;3.15;;
12687;SDS011;6408;59.388;17.798;2023-05-15T07:26:55;4.85;;;2.78;;
12687;SDS011;6408;59.388;17.798;2023-05-15T07:29:22;7.28;;;3.08;;
12687;SDS011;6408;59.388;17.798;2023-05-15T07:31:49;6.55;;;3.08;;
12687;SDS011;6408;59.388;17.798;2023-05-15T07:34:17;6.47;;;3.10;;
12687;SDS011;6408;59.388;17.798;2023-05-15T07:36:45;4.38;;;3.30;;
12687;SDS011;6408;59.388;17.798;2023-05-15T07:39:14;5.40;;;3.08;;
12687;SDS011;6408;59.388;17.798;2023-05-15T07:41:41;6.10;;;2.90;;
12687;SDS011;6408;59.388;17.798;2023-05-15T07:44:08;5.63;;;3.17;;
12687;SDS011;6408;59.388;17.798;2023-05-15T07:46:36;9.02;;;2.88;;
12687;SDS011;6408;59.388;17.798;2023-05-15T07:49:03;4.30;;;2.88;;
12687;SDS011;6408;59.388;17.798;2023-05-15T07:51:31;5.47;;;3.45;;
12687;SDS011;6408;59.388;17.798;2023-05-15T07:53:59;4.78;;;2.92;;
12687;SDS011;6408;59.388;17.798;2023-05-15T07:56:29;5.38;;;3.03;;
12687;SDS011;6408;59.388;17.798;2023-05-15T07:58:57;4.30;;;2.72;;
12687;SDS011;6408;59.388;17.798;2023-05-15T08:01:25;7.97;;;2.90;;
12687;SDS011;6408;59.388;17.798;2023-05-15T08:03:52;5.65;;;2.40;;
12687;SDS011;6408;59.388;17.798;2023-05-15T08:06:19;4.18;;;2.63;;
12687;SDS011;6408;59.388;17.798;2023-05-15T08:08:46;3.90;;;2.47;;
12687;SDS011;6408;59.388;17.798;2023-05-15T08:11:13;8.18;;;2.70;;
12687;SDS011;6408;59.388;17.798;2023-05-15T08:13:43;4.80;;;2.53;;
12687;SDS011;6408;59.388;17.798;2023-05-15T08:16:11;6.18;;;2.80;;
12687;SDS011;6408;59.388;17.798;2023-05-15T08:18:38;6.63;;;2.70;;
12687;SDS011;6408;59.388;17.798;2023-05-15T08:21:06;4.85;;;2.78;;
12687;SDS011;6408;59.388;17.798;2023-05-15T08:23:33;3.00;;;2.47;;
12687;SDS011;6408;59.388;17.798;2023-05-15T08:26:01;4.22;;;2.60;;
12687;SDS011;6408;59.388;17.798;2023-05-15T08:28:28;5.30;;;2.67;;
12687;SDS011;6408;59.388;17.798;2023-05-15T08:30:57;4.85;;;2.67;;
12687;SDS011;6408;59.388;17.798;2023-05-15T08:33:24;5.30;;;2.90;;
12687;SDS011;6408;59.388;17.798;2023-05-15T08:35:51;4.35;;;2.88;;
12687;SDS011;6408;59.388;17.798;2023-05-15T08:38:19;5.47;;;2.70;;
12687;SDS011;6408;59.388;17.798;2023-05-15T08:40:46;5.40;;;2.80;;
12687;SDS011;6408;59.388;17.798;2023-05-15T08:43:17;6.00;;;2.90;;
12687;SDS011;6408;59.388;17.798;2023-05-15T08:45:47;5.40;;;2.83;;
12687;SDS011;6408;59.388;17.798;2023-05-15T08:48:17;4.55;;;2.72;;
12687;SDS011;6408;59.388;17.798;2023-05-15T08:50:45;3.30;;;3.00;;
12687;SDS011;6408;59.388;17.798;2023-05-15T08:53:13;4.10;;;2.67;;
12687;SDS011;6408;59.388;17.798;2023-05-15T08:55:41;4.82;;;2.72;;
12687;SDS011;6408;59.388;17.798;2023-05-15T08:58:09;3.92;;;2.38;;
12687;SDS011;6408;59.388;17.798;2023-05-15T09:00:36;3.05;;;2.60;;
12687;SDS011;6408;59.388;17.798;2023-05-15T09:03:04;3.75;;;2.50;;
12687;SDS011;6408;59.388;17.798;2023-05-15T09:05:34;4.05;;;2.38;;
12687;SDS011;6408;59.388;17.798;2023-05-15T09:08:01;6.72;;;2.72;;
12687;SDS011;6408;59.388;17.798;2023-05-15T09:10:31;3.92;;;2.72;;
12687;SDS011;6408;59.388;17.798;2023-05-15T09:13:00;6.10;;;2.58;;
12687;SDS011;6408;59.388;17.798;2023-05-15T09:15:28;4.00;;;2.25;;
12687;SDS011;6408;59.388;17.798;2023-05-15T09:17:56;3.25;;;2.70;;
12687;SDS011;6408;59.388;17.798;2023-05-15T09:20:26;4.50;;;2.47;;
12687;SDS011;6408;59.388;17.798;2023-05-15T09:22:57;3.03;;;2.40;;
12687;SDS011;6408;59.388;17.798;2023-05-15T09:25:31;2.55;;;2.30;;
12687;SDS011;6408;59.388;17.798;2023-05-15T09:28:01;3.80;;;2.42;;
12687;SDS011;6408;59.388;17.798;2023-05-15T09:30:29;3.67;;;2.10;;
12687;SDS011;6408;59.388;17.798;2023-05-15T09:32:57;5.80;;;2.28;;
12687;SDS011;6408;59.388;17.798;2023-05-15T09:35:28;4.03;;;2.25;;
12687;SDS011;6408;59.388;17.798;2023-05-15T09:37:59;4.30;;;2.35;;
12687;SDS011;6408;59.388;17.798;2023-05-15T09:40:27;3.55;;;2.00;;
12687;SDS011;6408;59.388;17.798;2023-05-15T09:42:56;4.40;;;2.22;;
12687;SDS011;6408;59.388;17.798;2023-05-15T09:45:24;6.05;;;2.30;;
12687;SDS011;6408;59.388;17.798;2023-05-15T09:47:53;4.82;;;2.25;;
12687;SDS011;6408;59.388;17.798;2023-05-15T09:50:21;4.20;;;2.60;;
12687;SDS011;6408;59.388;17.798;2023-05-15T09:52:50;5.20;;;2.40;;
12687;SDS011;6408;59.388;17.798;2023-05-15T09:55:19;2.92;;;2.20;;
12687;SDS011;6408;59.388;17.798;2023-05-15T09:58:03;3.03;;;2.40;;
12687;SDS011;6408;59.388;17.798;2023-05-15T10:00:32;6.40;;;2.40;;
12687;SDS011;6408;59.388;17.798;2023-05-15T10:03:00;4.22;;;2.38;;
12687;SDS011;6408;59.388;17.798;2023-05-15T10:05:28;3.85;;;2.20;;
12687;SDS011;6408;59.388;17.798;2023-05-15T10:07:56;5.75;;;2.30;;
12687;SDS011;6408;59.388;17.798;2023-05-15T10:10:26;4.22;;;2.17;;
12687;SDS011;6408;59.388;17.798;2023-05-15T10:12:55;6.45;;;2.55;;
12687;SDS011;6408;59.388;17.798;2023-05-15T10:15:24;4.18;;;2.40;;
12687;SDS011;6408;59.388;17.798;2023-05-15T10:17:51;4.18;;;2.35;;
12687;SDS011;6408;59.388;17.798;2023-05-15T10:20:20;5.18;;;2.13;;
12687;SDS011;6408;59.388;17.798;2023-05-15T10:22:51;5.65;;;2.08;;
12687;SDS011;6408;59.388;17.798;2023-05-15T10:25:21;5.75;;;2.50;;
12687;SDS011;6408;59.388;17.798;2023-05-15T10:27:58;2.40;;;2.10;;
12687;SDS011;6408;59.388;17.798;2023-05-15T10:30:27;3.78;;;2.05;;
12687;SDS011;6408;59.388;17.798;2023-05-15T10:32:57;5.38;;;2.50;;
12687;SDS011;6408;59.388;17.798;2023-05-15T10:35:25;3.75;;;2.15;;
12687;SDS011;6408;59.388;17.798;2023-05-15T10:37:53;4.97;;;2.03;;
12687;SDS011;6408;59.388;17.798;2023-05-15T10:40:20;7.60;;;2.47;;
12687;SDS011;6408;59.388;17.798;2023-05-15T10:42:50;4.53;;;2.38;;
12687;SDS011;6408;59.388;17.798;2023-05-15T10:45:19;4.30;;;2.42;;
12687;SDS011;6408;59.388;17.798;2023-05-15T10:47:47;3.13;;;2.35;;
12687;SDS011;6408;59.388;17.798;2023-05-15T10:50:15;6.85;;;2.17;;
12687;SDS011;6408;59.388;17.798;2023-05-15T10:52:43;6.45;;;2.10;;
12687;SDS011;6408;59.388;17.798;2023-05-15T10:55:12;4.22;;;2.40;;
12687;SDS011;6408;59.388;17.798;2023-05-15T10:57:42;4.65;;;2.40;;
12687;SDS011;6408;59.388;17.798;2023-05-15T11:00:24;2.08;;;1.88;;
12687;SDS011;6408;59.388;17.798;2023-05-15T11:02:52;3.58;;;2.45;;
12687;SDS011;6408;59.388;17.798;2023-05-15T11:05:21;2.30;;;2.10;;
12687;SDS011;6408;59.388;17.798;2023-05-15T11:10:51;4.43;;;2.35;;
12687;SDS011;6408;59.388;17.798;2023-05-15T11:13:19;3.10;;;2.38;;
12687;SDS011;6408;59.388;17.798;2023-05-15T11:15:48;3.67;;;2.15;;
12687;SDS011;6408;59.388;17.798;2023-05-15T11:18:15;4.50;;;2.30;;
12687;SDS011;6408;59.388;17.798;2023-05-15T11:21:04;2.22;;;2.00;;
12687;SDS011;6408;59.388;17.798;2023-05-15T11:23:36;3.40;;;2.28;;
12687;SDS011;6408;59.388;17.798;2023-05-15T11:26:05;4.38;;;2.13;;
12687;SDS011;6408;59.388;17.798;2023-05-15T11:28:39;3.88;;;2.40;;
12687;SDS011;6408;59.388;17.798;2023-05-15T11:31:10;2.72;;;2.20;;
12687;SDS011;6408;59.388;17.798;2023-05-15T11:33:38;3.83;;;2.47;;
12687;SDS011;6408;59.388;17.798;2023-05-15T11:36:06;4.93;;;2.50;;
12687;SDS011;6408;59.388;17.798;2023-05-15T11:38:37;2.70;;;2.20;;
12687;SDS011;6408;59.388;17.798;2023-05-15T11:41:15;3.83;;;2.70;;
12687;SDS011;6408;59.388;17.798;2023-05-15T11:43:43;3.03;;;2.45;;
12687;SDS011;6408;59.388;17.798;2023-05-15T11:46:13;5.22;;;2.40;;
12687;SDS011;6408;59.388;17.798;2023-05-15T11:48:41;4.53;;;2.40;;
12687;SDS011;6408;59.388;17.798;2023-05-15T11:51:13;2.58;;;2.22;;
12687;SDS011;6408;59.388;17.798;2023-05-15T11:53:42;3.88;;;2.28;;
12687;SDS011;6408;59.388;17.798;2023-05-15T11:56:12;3.33;;;2.40;;
12687;SDS011;6408;59.388;17.798;2023-05-15T11:58:42;3.10;;;2.47;;
12687;SDS011;6408;59.388;17.798;2023-05-15T12:01:10;3.25;;;2.33;;
12687;SDS011;6408;59.388;17.798;2023-05-15T12:03:39;6.03;;;2.60;;
12687;SDS011;6408;59.388;17.798;2023-05-15T12:06:06;2.95;;;2.65;;
12687;SDS011;6408;59.388;17.798;2023-05-15T12:08:36;2.53;;;2.33;;
12687;SDS011;6408;59.388;17.798;2023-05-15T12:11:03;3.25;;;2.28;;
12687;SDS011;6408;59.388;17.798;2023-05-15T12:13:31;2.85;;;2.20;;
12687;SDS011;6408;59.388;17.798;2023-05-15T12:15:59;4.80;;;2.92;;
12687;SDS011;6408;59.388;17.798;2023-05-15T12:18:28;3.03;;;2.33;;
12687;SDS011;6408;59.388;17.798;2023-05-15T12:20:58;2.95;;;2.42;;
12687;SDS011;6408;59.388;17.798;2023-05-15T12:23:26;3.58;;;2.65;;
12687;SDS011;6408;59.388;17.798;2023-05-15T12:25:56;6.07;;;2.72;;
12687;SDS011;6408;59.388;17.798;2023-05-15T12:28:25;5.85;;;2.63;;
12687;SDS011;6408;59.388;17.798;2023-05-15T12:30:52;5.63;;;2.50;;
12687;SDS011;6408;59.388;17.798;2023-05-15T12:33:20;3.33;;;2.40;;
12687;SDS011;6408;59.388;17.798;2023-05-15T12:35:49;4.63;;;2.40;;
12687;SDS011;6408;59.388;17.798;2023-05-15T12:38:21;5.65;;;2.50;;
12687;SDS011;6408;59.388;17.798;2023-05-15T12:40:50;5.35;;;2.28;;
12687;SDS011;6408;59.388;17.798;2023-05-15T12:43:18;4.68;;;2.28;;
12687;SDS011;6408;59.388;17.798;2023-05-15T12:45:50;4.22;;;2.22;;
12687;SDS011;6408;59.388;17.798;2023-05-15T12:48:18;2.97;;;2.45;;
12687;SDS011;6408;59.388;17.798;2023-05-15T12:50:46;3.80;;;2.50;;
12687;SDS011;6408;59.388;17.798;2023-05-15T12:53:14;5.38;;;2.42;;
12687;SDS011;6408;59.388;17.798;2023-05-15T12:55:44;5.30;;;2.38;;
12687;SDS011;6408;59.388;17.798;2023-05-15T12:58:13;3.00;;;2.40;;
12687;SDS011;6408;59.388;17.798;2023-05-15T13:00:43;3.50;;;2.42;;
12687;SDS011;6408;59.388;17.798;2023-05-15T13:03:12;4.03;;;2.40;;
12687;SDS011;6408;59.388;17.798;2023-05-15T13:05:41;4.03;;;2.30;;
12687;SDS011;6408;59.388;17.798;2023-05-15T13:08:13;6.63;;;2.60;;
12687;SDS011;6408;59.388;17.798;2023-05-15T13:10:41;6.70;;;2.55;;
12687;SDS011;6408;59.388;17.798;2023-05-15T13:13:11;4.25;;;2.65;;
12687;SDS011;6408;59.388;17.798;2023-05-15T13:15:41;6.05;;;2.63;;
12687;SDS011;6408;59.388;17.798;2023-05-15T13:18:10;4.18;;;2.22;;
12687;SDS011;6408;59.388;17.798;2023-05-15T13:20:38;4.50;;;2.40;;
12687;SDS011;6408;59.388;17.798;2023-05-15T13:23:07;3.97;;;2.50;;
12687;SDS011;6408;59.388;17.798;2023-05-15T13:25:36;3.50;;;2.50;;
12687;SDS011;6408;59.388;17.798;2023-05-15T13:28:05;4.60;;;2.70;;
12687;SDS011;6408;59.388;17.798;2023-05-15T13:30:33;6.25;;;2.70;;
12687;SDS011;6408;59.388;17.798;2023-05-15T13:33:01;4.43;;;2.42;;
12687;SDS011;6408;59.388;17.798;2023-05-15T13:35:29;5.47;;;2.58;;
12687;SDS011;6408;59.388;17.798;2023-05-15T13:37:56;3.40;;;2.28;;
12687;SDS011;6408;59.388;17.798;2023-05-15T13:40:24;3.30;;;2.20;;
12687;SDS011;6408;59.388;17.798;2023-05-15T13:42:52;2.63;;;2.40;;
12687;SDS011;6408;59.388;17.798;2023-05-15T13:45:21;3.08;;;2.20;;
12687;SDS011;6408;59.388;17.798;2023-05-15T13:47:49;2.95;;;2.17;;
12687;SDS011;6408;59.388;17.798;2023-05-15T13:50:16;3.10;;;2.60;;
12687;SDS011;6408;59.388;17.798;2023-05-15T13:52:44;5.05;;;2.40;;
12687;SDS011;6408;59.388;17.798;2023-05-15T13:55:12;6.60;;;2.22;;
12687;SDS011;6408;59.388;17.798;2023-05-15T13:57:40;3.63;;;2.55;;
12687;SDS011;6408;59.388;17.798;2023-05-15T14:00:08;3.17;;;2.30;;
12687;SDS011;6408;59.388;17.798;2023-05-15T14:02:38;4.15;;;2.28;;
12687;SDS011;6408;59.388;17.798;2023-05-15T14:05:07;3.47;;;2.15;;
12687;SDS011;6408;59.388;17.798;2023-05-15T14:07:35;6.88;;;2.50;;
12687;SDS011;6408;59.388;17.798;2023-05-15T14:10:02;3.05;;;2.40;;
12687;SDS011;6408;59.388;17.798;2023-05-15T14:12:30;4.20;;;2.60;;
12687;SDS011;6408;59.388;17.798;2023-05-15T14:14:58;2.80;;;2.30;;
12687;SDS011;6408;59.388;17.798;2023-05-15T14:17:25;2.67;;;2.40;;
12687;SDS011;6408;59.388;17.798;2023-05-15T14:19:55;3.03;;;2.40;;
12687;SDS011;6408;59.388;17.798;2023-05-15T14:22:23;3.25;;;2.30;;
12687;SDS011;6408;59.388;17.798;2023-05-15T14:24:50;3.17;;;2.60;;
12687;SDS011;6408;59.388;17.798;2023-05-15T14:27:17;3.83;;;2.53;;
12687;SDS011;6408;59.388;17.798;2023-05-15T14:29:44;5.10;;;2.58;;
12687;SDS011;6408;59.388;17.798;2023-05-15T14:32:13;3.35;;;2.40;;
12687;SDS011;6408;59.388;17.798;2023-05-15T14:34:40;6.63;;;2.53;;
12687;SDS011;6408;59.388;17.798;2023-05-15T14:37:09;3.35;;;2.35;;
12687;SDS011;6408;59.388;17.798;2023-05-15T14:39:36;4.88;;;2.45;;
12687;SDS011;6408;59.388;17.798;2023-05-15T14:42:03;4.75;;;2.35;;
12687;SDS011;6408;59.388;17.798;2023-05-15T14:44:31;3.50;;;2.40;;
12687;SDS011;6408;59.388;17.798;2023-05-15T14:47:05;7.30;;;2.42;;
12687;SDS011;6408;59.388;17.798;2023-05-15T14:49:34;2.97;;;2.53;;
12687;SDS011;6408;59.388;17.798;2023-05-15T14:52:01;7.10;;;2.60;;
12687;SDS011;6408;59.388;17.798;2023-05-15T14:54:31;2.67;;;2.25;;
12687;SDS011;6408;59.388;17.798;2023-05-15T14:56:59;4.65;;;2.50;;
12687;SDS011;6408;59.388;17.798;2023-05-15T14:59:27;6.28;;;2.72;;
12687;SDS011;6408;59.388;17.798;2023-05-15T15:01:54;5.70;;;2.60;;
12687;SDS011;6408;59.388;17.798;2023-05-15T15:04:22;3.75;;;2.72;;
12687;SDS011;6408;59.388;17.798;2023-05-15T15:06:50;4.85;;;2.38;;
12687;SDS011;6408;59.388;17.798;2023-05-15T15:09:20;4.28;;;2.83;;